createdAt,value
2022-10-05T00:00:12.289Z,13.82
2022-10-05T00:00:57.238Z,12.85
2022-10-05T00:01:39.684Z,11.40
2022-10-05T00:02:23.550Z,11.52
2022-10-05T00:03:11.713Z,10.63
2022-10-05T00:04:22.901Z,11.77
2022-10-05T00:05:19.571Z,11.35
2022-10-05T00:06:01.387Z,8.90
2022-10-05T00:06:45.388Z,10.95
2022-10-05T00:07:30.134Z,11.85
2022-10-05T00:08:22.677Z,11.18
2022-10-05T00:09:19.011Z,11.30
2022-10-05T00:10:00.757Z,10.18
2022-10-05T00:10:43.003Z,11.13
2022-10-05T00:11:24.676Z,15.85
2022-10-05T00:12:17.251Z,13.38
2022-10-05T00:12:58.921Z,11.43
2022-10-05T00:13:41.580Z,12.30
2022-10-05T00:14:34.855Z,10.88
2022-10-05T00:15:18.851Z,10.07
2022-10-05T00:16:19.082Z,9.55
2022-10-05T00:17:02.261Z,9.80
2022-10-05T00:17:44.018Z,10.00
2022-10-05T00:18:27.016Z,12.52
2022-10-05T00:19:19.964Z,13.30
2022-10-05T00:20:01.634Z,9.98
2022-10-05T00:20:44.485Z,11.85
2022-10-05T00:21:28.914Z,13.57
2022-10-05T00:22:19.201Z,10.88
2022-10-05T00:23:04.403Z,10.68
2022-10-05T00:23:46.058Z,10.85
2022-10-05T00:24:27.752Z,10.02
2022-10-05T00:25:20.807Z,13.32
2022-10-05T00:26:11.905Z,10.55
2022-10-05T00:26:57.760Z,10.50
2022-10-05T00:27:40.235Z,10.90
2022-10-05T00:28:27.670Z,12.85
2022-10-05T00:29:22.051Z,9.52
2022-10-05T00:30:15.682Z,10.48
2022-10-05T00:30:58.813Z,9.57
2022-10-05T00:31:40.582Z,10.07
2022-10-05T00:32:22.291Z,11.80
2022-10-05T00:33:03.977Z,8.70
2022-10-05T00:33:46.170Z,11.25
2022-10-05T00:34:27.809Z,11.57
2022-10-05T00:35:10.644Z,14.50
2022-10-05T00:35:52.287Z,16.15
2022-10-05T00:36:33.989Z,10.65
2022-10-05T00:37:15.648Z,11.95
2022-10-05T00:37:57.365Z,9.90
2022-10-05T00:38:39.631Z,10.55
2022-10-05T00:39:21.283Z,12.07
2022-10-05T00:40:09.753Z,14.05
2022-10-05T00:41:44.914Z,12.73
2022-10-05T00:42:41.365Z,10.55
2022-10-05T00:43:28.732Z,11.35
2022-10-05T00:44:24.781Z,9.77
2022-10-05T00:45:21.797Z,9.73
2022-10-05T00:46:13.151Z,12.15
2022-10-05T00:46:57.094Z,9.02
2022-10-05T00:48:07.866Z,12.50
2022-10-05T00:49:13.966Z,9.38
2022-10-05T00:50:28.095Z,11.05
2022-10-05T00:51:24.219Z,9.63
2022-10-05T00:52:20.618Z,10.05
2022-10-05T00:53:08.438Z,10.30
2022-10-05T00:54:18.796Z,10.80
2022-10-05T00:55:12.255Z,10.52
2022-10-05T00:56:08.649Z,9.70
2022-10-05T00:57:08.774Z,9.48
2022-10-05T00:58:16.477Z,10.52
2022-10-05T00:59:21.786Z,10.60
2022-10-05T01:00:07.485Z,8.88
2022-10-05T01:01:21.356Z,10.07
2022-10-05T01:02:23.786Z,11.15
2022-10-05T01:03:24.677Z,12.25
2022-10-05T01:04:17.010Z,9.60
2022-10-05T01:05:10.217Z,8.30
2022-10-05T01:06:05.052Z,10.60
2022-10-05T01:06:52.593Z,11.63
2022-10-05T01:08:04.315Z,12.38
2022-10-05T01:08:48.904Z,8.88
2022-10-05T01:09:57.648Z,9.43
2022-10-05T01:10:47.174Z,9.07
2022-10-05T01:11:31.619Z,9.23
2022-10-05T01:12:47.254Z,10.32
2022-10-05T01:13:42.379Z,8.95
2022-10-05T01:14:46.609Z,9.68
2022-10-05T01:15:36.281Z,12.68
2022-10-05T01:16:50.025Z,9.57
2022-10-05T01:17:48.301Z,10.85
2022-10-05T01:19:01.211Z,9.00
2022-10-05T01:20:16.974Z,8.35
2022-10-05T01:21:07.854Z,10.18
2022-10-05T01:21:57.134Z,10.27
2022-10-05T01:22:50.732Z,13.00
2022-10-05T01:23:53.953Z,13.15
2022-10-05T01:25:30.982Z,11.63
2022-10-05T01:26:19.831Z,13.10
2022-10-05T01:27:19.296Z,11.88
2022-10-05T01:28:12.218Z,12.55
2022-10-05T01:29:15.459Z,7.97
2022-10-05T01:30:15.261Z,10.93
2022-10-05T01:31:15.497Z,9.93
2022-10-05T01:32:11.672Z,12.52
2022-10-05T01:33:08.931Z,12.43
2022-10-05T01:34:22.644Z,11.25
2022-10-05T01:35:19.321Z,10.20
2022-10-05T01:36:21.196Z,9.10
2022-10-05T01:37:26.791Z,8.43
2022-10-05T01:38:26.771Z,13.20
2022-10-05T01:39:25.617Z,9.02
2022-10-05T01:40:16.300Z,9.20
2022-10-05T01:41:06.891Z,11.40
2022-10-05T01:42:10.138Z,10.30
2022-10-05T01:43:06.637Z,10.35
2022-10-05T01:43:54.029Z,11.15
2022-10-05T01:45:09.734Z,10.35
2022-10-05T01:45:51.376Z,12.57
2022-10-05T01:46:41.883Z,12.50
2022-10-05T01:47:41.357Z,11.93
2022-10-05T01:48:29.792Z,8.73
2022-10-05T01:49:49.774Z,7.90
2022-10-05T01:50:51.430Z,13.35
2022-10-05T01:51:38.434Z,8.90
2022-10-05T01:52:43.949Z,9.55
2022-10-05T01:53:34.810Z,9.07
2022-10-05T01:54:43.136Z,11.20
2022-10-05T01:55:44.552Z,9.98
2022-10-05T01:56:53.068Z,12.15
2022-10-05T01:57:40.879Z,12.63
2022-10-05T01:58:39.496Z,10.27
2022-10-05T01:59:55.749Z,11.30
2022-10-05T02:00:48.701Z,9.80
2022-10-05T02:01:59.936Z,9.15
2022-10-05T02:03:07.933Z,9.95
2022-10-05T02:04:29.596Z,10.20
2022-10-05T02:05:24.338Z,11.45
2022-10-05T02:06:17.354Z,9.60
2022-10-05T02:07:02.630Z,9.65
2022-10-05T02:07:54.840Z,11.90
2022-10-05T02:08:47.636Z,9.18
2022-10-05T02:09:37.199Z,13.27
2022-10-05T02:10:35.288Z,10.80
2022-10-05T02:11:16.953Z,8.48
2022-10-05T02:12:05.303Z,8.75
2022-10-05T02:12:48.130Z,9.48
2022-10-05T02:13:40.655Z,9.82
2022-10-05T02:14:32.242Z,10.50
2022-10-05T02:15:18.457Z,11.35
2022-10-05T02:16:29.708Z,10.48
2022-10-05T02:17:19.330Z,11.23
2022-10-05T02:18:10.615Z,10.60
2022-10-05T02:19:19.682Z,10.27
2022-10-05T02:20:09.054Z,10.60
2022-10-05T02:20:52.827Z,12.32
2022-10-05T02:21:36.373Z,12.18
2022-10-05T02:22:27.779Z,10.30
2022-10-05T02:23:17.914Z,9.13
2022-10-05T02:24:06.862Z,10.98
2022-10-05T02:24:55.475Z,11.23
2022-10-05T02:25:41.519Z,11.27
2022-10-05T02:26:25.653Z,12.55
2022-10-05T02:27:09.738Z,11.50
2022-10-05T02:28:01.163Z,10.50
2022-10-05T02:28:55.429Z,9.30
2022-10-05T02:29:42.538Z,9.90
2022-10-05T02:30:24.455Z,10.25
2022-10-05T02:31:21.475Z,11.07
2022-10-05T02:32:11.643Z,10.70
2022-10-05T02:33:09.627Z,12.60
2022-10-05T02:33:51.260Z,14.65
2022-10-05T02:34:43.000Z,11.05
2022-10-05T02:35:24.718Z,15.68
2022-10-05T02:36:16.684Z,13.18
2022-10-05T02:37:00.863Z,11.60
2022-10-05T02:37:45.628Z,11.57
2022-10-05T02:38:55.344Z,11.27
2022-10-05T02:40:04.735Z,10.95
2022-10-05T02:41:04.149Z,11.07
2022-10-05T02:42:00.273Z,12.75
2022-10-05T02:42:47.605Z,11.10
2022-10-05T02:43:38.912Z,10.80
2022-10-05T02:44:32.502Z,12.13
2022-10-05T02:45:21.987Z,12.32
2022-10-05T02:46:20.937Z,10.40
2022-10-05T02:47:40.566Z,13.30
2022-10-05T02:48:44.534Z,12.60
2022-10-05T02:49:45.090Z,10.90
2022-10-05T02:50:51.169Z,14.70
2022-10-05T02:51:42.028Z,16.35
2022-10-05T02:52:31.535Z,10.60
2022-10-05T02:53:45.355Z,12.20
2022-10-05T02:55:01.208Z,11.85
2022-10-05T02:56:03.649Z,11.50
2022-10-05T02:56:51.177Z,12.20
2022-10-05T02:57:47.066Z,10.18
2022-10-05T02:58:37.023Z,14.75
2022-10-05T02:59:40.105Z,12.80
2022-10-05T03:00:24.357Z,11.20
2022-10-05T03:01:20.899Z,11.45
2022-10-05T03:02:33.831Z,14.50
2022-10-05T03:03:33.703Z,13.82
2022-10-05T03:04:42.715Z,10.88
2022-10-05T03:05:29.201Z,12.65
2022-10-05T03:06:32.498Z,10.07
2022-10-05T03:07:37.459Z,9.80
2022-10-05T03:08:41.798Z,14.65
2022-10-05T03:09:27.825Z,13.25
2022-10-05T03:10:26.755Z,9.68
2022-10-05T03:11:15.283Z,11.40
2022-10-05T03:12:10.984Z,9.63
2022-10-05T03:13:10.951Z,9.95
2022-10-05T03:14:14.404Z,10.63
2022-10-05T03:15:14.584Z,11.07
2022-10-05T03:16:38.431Z,13.50
2022-10-05T03:17:23.867Z,12.73
2022-10-05T03:18:36.008Z,12.75
2022-10-05T03:19:51.107Z,12.10
2022-10-05T03:20:46.105Z,9.98
2022-10-05T03:21:53.137Z,12.40
2022-10-05T03:22:44.721Z,14.13
2022-10-05T03:23:56.680Z,13.23
2022-10-05T03:24:52.033Z,11.88
2022-10-05T03:25:39.763Z,12.18
2022-10-05T03:26:38.041Z,12.25
2022-10-05T03:27:19.624Z,11.27
2022-10-05T03:28:26.288Z,10.05
2022-10-05T03:29:35.116Z,9.93
2022-10-05T03:30:21.674Z,10.88
2022-10-05T03:31:25.439Z,10.75
2022-10-05T03:32:25.866Z,13.75
2022-10-05T03:33:27.624Z,12.40
2022-10-05T03:34:24.872Z,12.50
2022-10-05T03:35:33.144Z,11.85
2022-10-05T03:36:32.619Z,12.07
2022-10-05T03:37:27.917Z,11.20
2022-10-05T03:38:37.871Z,11.27
2022-10-05T03:39:30.616Z,14.35
2022-10-05T03:40:27.278Z,12.20
2022-10-05T03:41:31.262Z,11.77
2022-10-05T03:42:27.313Z,11.35
2022-10-05T03:43:39.808Z,9.40
2022-10-05T03:44:37.446Z,11.70
2022-10-05T03:45:34.387Z,10.30
2022-10-05T03:46:30.692Z,11.10
2022-10-05T03:47:28.522Z,12.77
2022-10-05T03:48:19.537Z,11.68
2022-10-05T03:49:32.590Z,11.88
2022-10-05T03:50:50.906Z,11.38
2022-10-05T03:51:37.377Z,14.23
2022-10-05T03:52:34.842Z,11.95
2022-10-05T03:53:27.246Z,13.43
2022-10-05T03:54:17.405Z,18.90
2022-10-05T03:55:08.446Z,15.02
2022-10-05T03:55:59.594Z,13.15
2022-10-05T03:56:51.509Z,10.90
2022-10-05T03:57:38.190Z,12.68
2022-10-05T03:58:27.942Z,13.38
2022-10-05T03:59:31.533Z,13.60
2022-10-05T04:00:20.388Z,11.68
2022-10-05T04:01:10.811Z,14.02
2022-10-05T04:01:58.861Z,11.13
2022-10-05T04:02:46.942Z,12.18
2022-10-05T04:03:51.188Z,12.95
2022-10-05T04:04:38.736Z,13.48
2022-10-05T04:05:25.243Z,11.75
2022-10-05T04:06:16.687Z,11.30
2022-10-05T04:06:59.851Z,10.98
2022-10-05T04:07:52.661Z,11.55
2022-10-05T04:09:00.776Z,9.98
2022-10-05T04:09:47.676Z,13.10
2022-10-05T04:10:37.503Z,12.93
2022-10-05T04:11:37.097Z,10.93
2022-10-05T04:12:41.352Z,13.75
2022-10-05T04:13:36.636Z,13.20
2022-10-05T04:14:46.860Z,11.98
2022-10-05T04:15:41.331Z,12.07
2022-10-05T04:16:28.214Z,13.23
2022-10-05T04:17:17.955Z,12.38
2022-10-05T04:18:19.879Z,17.65
2022-10-05T04:19:23.213Z,11.85
2022-10-05T04:20:20.188Z,12.13
2022-10-05T04:21:24.054Z,15.50
2022-10-05T04:22:29.423Z,14.25
2022-10-05T04:23:11.027Z,10.95
2022-10-05T04:24:07.201Z,12.50
2022-10-05T04:25:14.260Z,13.30
2022-10-05T04:26:14.877Z,12.18
2022-10-05T04:27:03.206Z,11.63
2022-10-05T04:27:50.994Z,10.70
2022-10-05T04:28:55.904Z,10.77
2022-10-05T04:30:16.214Z,10.50
2022-10-05T04:30:59.489Z,13.15
2022-10-05T04:32:13.010Z,12.40
2022-10-05T04:32:59.341Z,11.70
2022-10-05T04:33:43.490Z,12.55
2022-10-05T04:34:52.373Z,11.25
2022-10-05T04:35:55.574Z,9.25
2022-10-05T04:36:51.659Z,10.48
2022-10-05T04:38:10.420Z,11.10
2022-10-05T04:39:02.832Z,11.10
2022-10-05T04:40:05.075Z,9.95
2022-10-05T04:41:20.190Z,10.80
2022-10-05T04:42:15.378Z,10.77
2022-10-05T04:43:15.479Z,10.32
2022-10-05T04:44:34.821Z,13.32
2022-10-05T04:45:41.305Z,12.40
2022-10-05T04:46:41.476Z,13.05
2022-10-05T04:47:52.902Z,13.65
2022-10-05T04:49:28.982Z,16.00
2022-10-05T04:50:22.782Z,11.32
2022-10-05T04:51:37.164Z,12.38
2022-10-05T04:52:39.823Z,10.82
2022-10-05T04:53:44.231Z,11.27
2022-10-05T04:54:44.228Z,10.35
2022-10-05T04:55:49.215Z,10.40
2022-10-05T04:56:45.606Z,12.15
2022-10-05T04:57:48.952Z,11.13
2022-10-05T04:58:49.737Z,11.63
2022-10-05T04:59:52.123Z,11.40
2022-10-05T05:00:55.773Z,11.10
2022-10-05T05:01:53.014Z,11.48
2022-10-05T05:02:34.619Z,13.20
2022-10-05T05:03:41.440Z,12.52
2022-10-05T05:04:48.224Z,12.80
2022-10-05T05:05:58.619Z,10.40
2022-10-05T05:07:08.358Z,11.68
2022-10-05T05:08:21.147Z,14.73
2022-10-05T05:09:24.669Z,12.13
2022-10-05T05:10:23.064Z,11.40
2022-10-05T05:11:29.486Z,12.25
2022-10-05T05:12:32.414Z,11.55
2022-10-05T05:13:43.085Z,9.95
2022-10-05T05:14:43.428Z,12.05
2022-10-05T05:15:47.583Z,11.80
2022-10-05T05:16:41.192Z,9.70
2022-10-05T05:17:31.367Z,11.70
2022-10-05T05:18:51.386Z,13.40
2022-10-05T05:20:03.812Z,10.30
2022-10-05T05:21:27.403Z,13.82
2022-10-05T05:22:29.004Z,11.00
2022-10-05T05:23:20.831Z,10.52
2022-10-05T05:24:05.041Z,10.43
2022-10-05T05:24:54.723Z,9.82
2022-10-05T05:26:03.418Z,12.40
2022-10-05T05:27:00.094Z,10.68
2022-10-05T05:27:51.424Z,12.30
2022-10-05T05:28:47.799Z,11.43
2022-10-05T05:30:17.586Z,10.75
2022-10-05T05:31:20.102Z,11.30
2022-10-05T05:32:25.565Z,10.07
2022-10-05T05:33:19.192Z,10.05
2022-10-05T05:34:27.309Z,10.85
2022-10-05T05:35:26.673Z,10.10
2022-10-05T05:36:23.036Z,11.10
2022-10-05T05:37:46.304Z,10.70
2022-10-05T05:38:37.573Z,13.23
2022-10-05T05:39:39.236Z,11.57
2022-10-05T05:40:28.226Z,11.77
2022-10-05T05:41:13.995Z,12.13
2022-10-05T05:42:23.105Z,11.82
2022-10-05T05:43:30.605Z,10.80
2022-10-05T05:44:25.892Z,9.65
2022-10-05T05:45:23.724Z,13.73
2022-10-05T05:46:30.079Z,12.13
2022-10-05T05:47:51.390Z,10.85
2022-10-05T05:48:43.096Z,11.35
2022-10-05T05:49:43.999Z,11.40
2022-10-05T05:50:43.046Z,10.50
2022-10-05T05:51:37.282Z,9.95
2022-10-05T05:52:34.645Z,12.38
2022-10-05T05:53:27.054Z,11.45
2022-10-05T05:54:38.760Z,10.88
2022-10-05T05:55:30.520Z,11.70
2022-10-05T05:56:25.954Z,11.48
2022-10-05T05:57:15.305Z,8.98
2022-10-05T05:58:11.202Z,11.43
2022-10-05T05:59:15.569Z,10.27
2022-10-05T06:00:00.499Z,9.90
2022-10-05T06:00:55.455Z,11.43
2022-10-05T06:01:46.318Z,10.77
2022-10-05T06:02:37.872Z,14.70
2022-10-05T06:03:26.037Z,10.73
2022-10-05T06:04:49.482Z,10.20
2022-10-05T06:05:35.403Z,10.73
2022-10-05T06:06:19.337Z,10.82
2022-10-05T06:07:03.271Z,11.38
2022-10-05T06:07:45.156Z,10.52
2022-10-05T06:08:45.035Z,10.75
2022-10-05T06:09:41.798Z,10.55
2022-10-05T06:10:30.792Z,14.55
2022-10-05T06:11:25.701Z,10.02
2022-10-05T06:12:27.079Z,14.15
2022-10-05T06:13:19.474Z,9.25
2022-10-05T06:14:13.502Z,10.60
2022-10-05T06:15:17.541Z,8.65
2022-10-05T06:16:04.753Z,8.10
2022-10-05T06:16:53.549Z,9.70
2022-10-05T06:17:45.831Z,11.73
2022-10-05T06:18:31.336Z,14.30
2022-10-05T06:19:16.869Z,15.05
2022-10-05T06:20:04.904Z,9.40
2022-10-05T06:20:56.289Z,10.00
2022-10-05T06:21:56.791Z,10.02
2022-10-05T06:22:42.923Z,13.48
2022-10-05T06:23:31.498Z,12.48
2022-10-05T06:24:25.427Z,9.88
2022-10-05T06:25:12.894Z,9.88
2022-10-05T06:26:10.912Z,12.65
2022-10-05T06:26:55.724Z,8.55
2022-10-05T06:27:37.404Z,8.48
2022-10-05T06:28:19.642Z,9.23
2022-10-05T06:29:05.838Z,10.80
2022-10-05T06:30:05.628Z,11.35
2022-10-05T06:31:15.350Z,9.15
2022-10-05T06:32:20.257Z,12.57
2022-10-05T06:33:27.141Z,11.02
2022-10-05T06:34:28.690Z,8.20
2022-10-05T06:35:21.318Z,10.30
2022-10-05T06:36:23.279Z,8.70
2022-10-05T06:37:15.773Z,9.88
2022-10-05T06:38:23.084Z,9.32
2022-10-05T06:39:29.606Z,10.30
2022-10-05T06:40:26.363Z,12.60
2022-10-05T06:41:20.276Z,8.38
2022-10-05T06:42:38.805Z,9.50
2022-10-05T06:43:26.412Z,9.23
2022-10-05T06:44:34.450Z,13.10
2022-10-05T06:45:34.215Z,16.67
2022-10-05T06:46:25.987Z,9.20
2022-10-05T06:47:27.205Z,12.90
2022-10-05T06:48:31.304Z,10.10
2022-10-05T06:49:29.162Z,8.88
2022-10-05T06:50:18.381Z,8.30
2022-10-05T06:51:15.652Z,9.10
2022-10-05T06:52:19.923Z,10.77
2022-10-05T06:53:19.350Z,8.60
2022-10-05T06:54:13.023Z,9.25
2022-10-05T06:55:22.952Z,9.90
2022-10-05T06:56:09.683Z,8.68
2022-10-05T06:57:23.700Z,8.20
2022-10-05T06:58:45.578Z,9.75
2022-10-05T07:00:01.568Z,9.05
2022-10-05T07:00:54.092Z,9.10
2022-10-05T07:02:10.380Z,9.85
2022-10-05T07:02:52.009Z,9.60
2022-10-05T07:03:39.463Z,9.95
2022-10-05T07:04:59.168Z,12.60
2022-10-05T07:05:57.399Z,9.88
2022-10-05T07:07:01.348Z,8.70
2022-10-05T07:07:58.974Z,8.68
2022-10-05T07:08:55.664Z,8.65
2022-10-05T07:10:05.925Z,10.48
2022-10-05T07:11:25.499Z,10.20
2022-10-05T07:12:21.615Z,10.40
2022-10-05T07:13:28.605Z,9.90
2022-10-05T07:14:29.132Z,9.52
2022-10-05T07:15:24.911Z,11.05
2022-10-05T07:16:30.010Z,12.63
2022-10-05T07:17:38.747Z,15.70
2022-10-05T07:18:32.405Z,11.88
2022-10-05T07:19:56.034Z,12.00
2022-10-05T07:20:56.734Z,10.35
2022-10-05T07:22:19.455Z,10.20
2022-10-05T07:23:16.322Z,13.05
2022-10-05T07:24:02.821Z,10.95
2022-10-05T07:25:06.223Z,12.68
2022-10-05T07:26:40.841Z,15.50
2022-10-05T07:27:25.563Z,9.80
2022-10-05T07:28:14.857Z,9.98
2022-10-05T07:29:18.187Z,11.00
2022-10-05T07:30:04.843Z,11.40
2022-10-05T07:31:00.538Z,10.35
2022-10-05T07:31:55.016Z,11.13
2022-10-05T07:32:39.983Z,10.98
2022-10-05T07:33:52.188Z,10.52
2022-10-05T07:34:50.127Z,12.20
2022-10-05T07:36:15.134Z,12.02
2022-10-05T07:37:33.348Z,11.88
2022-10-05T07:38:40.860Z,12.52
2022-10-05T07:39:55.347Z,9.27
2022-10-05T07:40:47.270Z,12.00
2022-10-05T07:41:29.207Z,9.85
2022-10-05T07:42:59.551Z,9.50
2022-10-05T07:44:02.038Z,9.37
2022-10-05T07:44:53.412Z,8.25
2022-10-05T07:45:47.837Z,9.52
2022-10-05T07:46:41.412Z,11.80
2022-10-05T07:47:34.705Z,14.02
2022-10-05T07:48:39.658Z,9.73
2022-10-05T07:49:41.606Z,10.10
2022-10-05T07:51:20.664Z,10.02
2022-10-05T07:52:09.826Z,10.07
2022-10-05T07:52:56.450Z,10.55
2022-10-05T07:53:41.512Z,9.48
2022-10-05T07:54:42.282Z,9.85
2022-10-05T07:55:34.064Z,11.40
2022-10-05T07:56:30.038Z,8.93
2022-10-05T07:57:23.497Z,9.32
2022-10-05T07:58:29.231Z,9.02
2022-10-05T07:59:44.785Z,10.55
2022-10-05T08:00:43.841Z,7.97
2022-10-05T08:01:29.924Z,9.27
2022-10-05T08:02:29.094Z,10.35
2022-10-05T08:03:17.685Z,11.65
2022-10-05T08:04:21.951Z,9.50
2022-10-05T08:05:11.201Z,10.50
2022-10-05T08:05:53.253Z,9.88
2022-10-05T08:06:40.660Z,9.63
2022-10-05T08:08:46.536Z,8.88
2022-10-05T08:09:55.428Z,9.95
2022-10-05T08:10:44.118Z,11.35
2022-10-05T08:11:50.783Z,10.40
2022-10-05T08:12:58.845Z,12.90
2022-10-05T08:13:55.869Z,9.80
2022-10-05T08:14:55.992Z,8.95
2022-10-05T08:15:47.369Z,9.13
2022-10-05T08:16:37.132Z,10.07
2022-10-05T08:17:39.064Z,9.43
2022-10-05T08:19:00.941Z,9.00
2022-10-05T08:19:56.271Z,9.38
2022-10-05T08:20:49.655Z,12.32
2022-10-05T08:21:36.306Z,8.02
2022-10-05T08:22:35.167Z,10.07
2022-10-05T08:23:33.974Z,10.05
2022-10-05T08:24:29.147Z,9.88
2022-10-05T08:25:28.922Z,9.43
2022-10-05T08:26:43.705Z,9.38
2022-10-05T08:27:51.101Z,8.02
2022-10-05T08:28:47.138Z,9.32
2022-10-05T08:29:31.648Z,9.05
2022-10-05T08:30:16.171Z,9.38
2022-10-05T08:31:27.353Z,8.82
2022-10-05T08:32:19.623Z,8.90
2022-10-05T08:33:16.597Z,8.70
2022-10-05T08:34:18.972Z,11.75
2022-10-05T08:35:21.860Z,11.23
2022-10-05T08:36:12.176Z,10.63
2022-10-05T08:37:17.844Z,7.95
2022-10-05T08:38:02.032Z,11.43
2022-10-05T08:38:44.309Z,11.90
2022-10-05T08:39:35.502Z,8.98
2022-10-05T08:40:49.305Z,10.70
2022-10-05T08:41:52.723Z,8.23
2022-10-05T08:43:04.385Z,9.30
2022-10-05T08:44:27.080Z,9.68
2022-10-05T08:45:28.678Z,9.98
2022-10-05T08:46:29.714Z,10.45
2022-10-05T08:47:42.095Z,8.85
2022-10-05T08:48:39.039Z,7.93
2022-10-05T08:49:59.053Z,10.35
2022-10-05T08:51:27.419Z,8.30
2022-10-05T08:52:29.110Z,9.20
2022-10-05T08:53:52.135Z,8.98
2022-10-05T08:54:55.452Z,7.28
2022-10-05T08:55:57.381Z,11.32
2022-10-05T08:56:39.059Z,7.28
2022-10-05T08:57:59.804Z,9.63
2022-10-05T08:58:54.936Z,8.35
2022-10-05T08:59:46.476Z,8.80
2022-10-05T09:01:03.840Z,9.43
2022-10-05T09:02:27.365Z,8.70
2022-10-05T09:03:35.487Z,8.50
2022-10-05T09:04:30.664Z,9.80
2022-10-05T09:05:43.110Z,7.60
2022-10-05T09:06:48.978Z,8.45
2022-10-05T09:08:01.272Z,8.07
2022-10-05T09:08:45.970Z,10.20
2022-10-05T09:09:36.469Z,9.35
2022-10-05T09:10:26.643Z,7.38
2022-10-05T09:11:39.418Z,15.27
2022-10-05T09:12:44.814Z,10.77
2022-10-05T09:13:58.994Z,9.30
2022-10-05T09:15:25.703Z,9.07
2022-10-05T09:16:27.816Z,9.02
2022-10-05T09:17:18.231Z,10.35
2022-10-05T09:18:18.655Z,10.38
2022-10-05T09:19:38.692Z,8.50
2022-10-05T09:20:32.170Z,7.85
2022-10-05T09:21:44.760Z,11.07
2022-10-05T09:22:38.320Z,10.00
2022-10-05T09:23:37.884Z,10.27
2022-10-05T09:24:48.571Z,7.82
2022-10-05T09:25:56.007Z,8.85
2022-10-05T09:26:40.686Z,7.57
2022-10-05T09:27:59.131Z,9.82
2022-10-05T09:29:15.175Z,8.48
2022-10-05T09:30:25.258Z,7.00
2022-10-05T09:31:44.179Z,8.95
2022-10-05T09:33:07.859Z,8.70
2022-10-05T09:33:59.645Z,7.25
2022-10-05T09:34:47.720Z,7.30
2022-10-05T09:35:58.077Z,7.75
2022-10-05T09:37:13.984Z,10.40
2022-10-05T09:38:02.015Z,9.65
2022-10-05T09:38:54.291Z,10.20
2022-10-05T09:39:48.176Z,8.05
2022-10-05T09:41:08.227Z,8.98
2022-10-05T09:42:18.753Z,13.85
2022-10-05T09:43:35.759Z,9.95
2022-10-05T09:44:42.056Z,7.93
2022-10-05T09:46:00.432Z,8.18
2022-10-05T09:46:53.283Z,7.63
2022-10-05T09:47:52.961Z,7.43
2022-10-05T09:49:12.587Z,7.47
2022-10-05T09:50:44.356Z,9.27
2022-10-05T09:51:43.927Z,7.43
2022-10-05T09:52:53.518Z,9.75
2022-10-05T09:54:10.646Z,7.55
2022-10-05T09:55:15.329Z,7.57
2022-10-05T09:56:22.588Z,7.13
2022-10-05T09:57:13.467Z,6.13
2022-10-05T09:58:14.675Z,7.13
2022-10-05T09:59:24.781Z,8.73
2022-10-05T10:00:21.679Z,7.18
2022-10-05T10:01:33.735Z,7.60
2022-10-05T10:02:53.016Z,5.47
2022-10-05T10:04:10.094Z,6.40
2022-10-05T10:05:33.834Z,4.28
2022-10-05T10:06:21.541Z,8.57
2022-10-05T10:07:21.074Z,5.30
2022-10-05T10:08:41.759Z,5.60
2022-10-05T10:09:38.824Z,5.35
2022-10-05T10:10:32.446Z,5.35
2022-10-05T10:11:29.403Z,7.72
2022-10-05T10:12:16.988Z,6.78
2022-10-05T10:12:58.664Z,6.20
2022-10-05T10:13:46.721Z,5.90
2022-10-05T10:15:05.609Z,6.80
2022-10-05T10:16:24.930Z,7.50
2022-10-05T10:17:48.346Z,5.72
2022-10-05T10:18:56.265Z,5.40
2022-10-05T10:19:59.393Z,7.45
2022-10-05T10:21:13.163Z,7.20
2022-10-05T10:22:00.308Z,5.88
2022-10-05T10:23:00.042Z,6.65
2022-10-05T10:24:09.490Z,8.80
2022-10-05T10:25:03.150Z,6.20
2022-10-05T10:25:56.664Z,7.90
2022-10-05T10:27:02.464Z,4.78
2022-10-05T10:28:13.212Z,4.72
2022-10-05T10:29:20.847Z,6.55
2022-10-05T10:30:31.072Z,5.63
2022-10-05T10:31:23.807Z,6.18
2022-10-05T10:32:09.616Z,7.15
2022-10-05T10:33:01.591Z,6.20
2022-10-05T10:34:16.268Z,6.97
2022-10-05T10:35:00.754Z,6.25
2022-10-05T10:35:53.588Z,6.15
2022-10-05T10:36:47.948Z,5.88
2022-10-05T10:37:52.790Z,5.90
2022-10-05T10:39:06.097Z,4.55
2022-10-05T10:40:06.402Z,6.50
2022-10-05T10:41:11.540Z,4.90
2022-10-05T10:42:29.654Z,7.60
2022-10-05T10:43:23.095Z,6.90
2022-10-05T10:44:35.350Z,5.72
2022-10-05T10:45:28.741Z,6.07
2022-10-05T10:46:41.202Z,5.82
2022-10-05T10:47:41.371Z,8.60
2022-10-05T10:48:29.144Z,6.20
2022-10-05T10:50:05.105Z,5.35
2022-10-05T10:50:55.354Z,6.70
2022-10-05T10:51:50.708Z,8.80
2022-10-05T10:52:41.190Z,6.10
2022-10-05T10:53:46.723Z,5.68
2022-10-05T10:54:56.027Z,5.10
2022-10-05T10:56:15.906Z,5.32
2022-10-05T10:57:11.749Z,6.50
2022-10-05T10:58:11.239Z,6.47
2022-10-05T10:59:29.241Z,6.35
2022-10-05T11:00:42.182Z,5.40
2022-10-05T11:02:01.194Z,7.30
2022-10-05T11:02:42.894Z,7.70
2022-10-05T11:03:57.811Z,4.88
2022-10-05T11:05:01.620Z,7.05
2022-10-05T11:06:12.281Z,5.00
2022-10-05T11:07:21.668Z,7.57
2022-10-05T11:08:22.052Z,4.78
2022-10-05T11:09:33.007Z,5.40
2022-10-05T11:10:52.271Z,6.55
2022-10-05T11:12:07.747Z,6.35
2022-10-05T11:13:16.695Z,4.88
2022-10-05T11:14:27.970Z,4.30
2022-10-05T11:15:12.735Z,4.13
2022-10-05T11:16:27.834Z,5.07
2022-10-05T11:17:33.926Z,4.40
2022-10-05T11:18:30.673Z,4.10
2022-10-05T11:19:46.286Z,6.32
2022-10-05T11:20:58.682Z,4.30
2022-10-05T11:22:21.528Z,4.63
2022-10-05T11:23:34.134Z,5.05
2022-10-05T11:24:48.485Z,3.80
2022-10-05T11:25:44.133Z,3.72
2022-10-05T11:26:56.385Z,4.13
2022-10-05T11:28:18.026Z,4.60
2022-10-05T11:29:21.633Z,3.40
2022-10-05T11:30:30.596Z,6.20
2022-10-05T11:31:31.157Z,3.45
2022-10-05T11:32:40.183Z,3.58
2022-10-05T11:33:55.985Z,3.55
2022-10-05T11:35:07.381Z,3.00
2022-10-05T11:36:31.442Z,3.40
2022-10-05T11:37:43.355Z,3.67
2022-10-05T11:38:46.077Z,3.20
2022-10-05T11:39:55.343Z,3.28
2022-10-05T11:40:52.596Z,4.00
2022-10-05T11:41:58.414Z,3.50
2022-10-05T11:43:09.277Z,5.97
2022-10-05T11:44:12.726Z,3.20
2022-10-05T11:45:02.993Z,3.70
2022-10-05T11:45:50.419Z,2.88
2022-10-05T11:46:51.880Z,4.93
2022-10-05T11:48:15.609Z,4.43
2022-10-05T11:49:20.537Z,5.10
2022-10-05T11:50:25.578Z,4.70
2022-10-05T11:51:28.588Z,4.38
2022-10-05T11:52:22.835Z,3.90
2022-10-05T11:53:37.426Z,5.10
2022-10-05T11:55:12.635Z,5.60
2022-10-05T11:56:08.576Z,3.83
2022-10-05T11:57:10.151Z,5.80
2022-10-05T11:57:56.218Z,3.60
2022-10-05T11:58:47.332Z,3.50
2022-10-05T11:59:35.237Z,3.50
2022-10-05T12:00:24.833Z,4.20
2022-10-05T12:01:19.441Z,3.27
2022-10-05T12:02:37.815Z,4.10
2022-10-05T12:03:39.702Z,6.18
2022-10-05T12:04:42.715Z,3.03
2022-10-05T12:05:46.277Z,2.80
2022-10-05T12:06:58.303Z,3.50
2022-10-05T12:08:05.744Z,3.30
2022-10-05T12:08:47.403Z,3.90
2022-10-05T12:10:06.022Z,3.58
2022-10-05T12:11:05.712Z,4.28
2022-10-05T12:12:17.904Z,3.78
2022-10-05T12:13:30.207Z,3.38
2022-10-05T12:14:27.192Z,2.83
2022-10-05T12:15:17.573Z,4.63
2022-10-05T12:16:04.963Z,4.40
2022-10-05T12:16:59.271Z,3.40
2022-10-05T12:18:28.540Z,4.05
2022-10-05T12:19:42.772Z,2.97
2022-10-05T12:20:39.098Z,4.78
2022-10-05T12:21:41.840Z,3.72
2022-10-05T12:22:43.805Z,5.80
2022-10-05T12:23:51.419Z,3.10
2022-10-05T12:24:35.714Z,3.20
2022-10-05T12:25:26.145Z,5.18
2022-10-05T12:26:19.463Z,5.00
2022-10-05T12:27:11.700Z,6.32
2022-10-05T12:27:58.429Z,4.70
2022-10-05T12:29:00.355Z,4.60
2022-10-05T12:29:46.025Z,3.70
2022-10-05T12:30:49.239Z,4.60
2022-10-05T12:32:06.246Z,3.10
2022-10-05T12:33:14.526Z,4.82
2022-10-05T12:34:02.240Z,4.05
2022-10-05T12:35:01.771Z,3.67
2022-10-05T12:35:50.103Z,3.33
2022-10-05T12:37:03.609Z,5.30
2022-10-05T12:37:50.564Z,3.97
2022-10-05T12:38:41.533Z,3.30
2022-10-05T12:39:38.180Z,2.80
2022-10-05T12:40:35.194Z,3.10
2022-10-05T12:41:27.437Z,3.00
2022-10-05T12:42:27.303Z,3.38
2022-10-05T12:43:24.455Z,3.55
2022-10-05T12:44:33.522Z,3.70
2022-10-05T12:45:37.364Z,5.07
2022-10-05T12:46:53.378Z,3.90
2022-10-05T12:47:53.993Z,3.65
2022-10-05T12:49:02.200Z,3.53
2022-10-05T12:49:49.776Z,3.60
2022-10-05T12:50:36.670Z,4.25
2022-10-05T12:51:41.884Z,4.35
2022-10-05T12:52:43.245Z,3.65
2022-10-05T12:53:51.880Z,4.55
2022-10-05T12:54:50.809Z,4.57
2022-10-05T12:55:53.988Z,4.28
2022-10-05T12:56:52.539Z,6.70
2022-10-05T12:57:44.339Z,3.25
2022-10-05T12:58:43.768Z,5.40